ADDS METAR Data INFO
IDs: Format: Raw Decoded Include TAF

Data at: 0027 UTC 11 Dec 2017

KDBN 110015Z AUTO 00000KT 10SM CLR 00/M01 A3027 RMK AO2
KDBN 102355Z AUTO 00000KT 10SM CLR 02/00 A3027 RMK AO2
KDBN 102335Z AUTO 24003KT 10SM CLR 01/M01 A3027 RMK AO2
KDBN 102315Z AUTO 00000KT 10SM CLR 03/M01 A3027 RMK AO2
KDBN 102255Z AUTO 24003KT 10SM CLR 03/M01 A3026 RMK AO2
KDBN 102235Z AUTO 00000KT 10SM CLR 05/M03 A3026 RMK AO2
KDBN 102210Z AUTO 27004KT 10SM CLR 08/M05 A3026 RMK AO2
KDBN 102155Z AUTO 27006KT 10SM CLR 08/M05 A3025 RMK AO2
KDBN 102135Z AUTO 28005KT 10SM CLR 09/M05 A3025 RMK AO2
KDBN 102115Z AUTO 27007KT 10SM CLR 10/M05 A3025 RMK AO2
KDBN 102055Z AUTO 26006KT 10SM CLR 10/M05 A3025 RMK AO2
KDBN 102035Z AUTO 26004KT 10SM CLR 10/M05 A3025 RMK AO2
KDBN 102015Z AUTO 26006KT 10SM CLR 10/M05 A3025 RMK AO2
KDBN 101955Z AUTO 28007KT 10SM CLR 10/M06 A3025 RMK AO2
KDBN 101935Z AUTO 26008KT 10SM CLR 10/M06 A3026 RMK AO2
KDBN 101915Z AUTO 31007KT 10SM CLR 10/M05 A3027 RMK AO2
KDBN 101855Z AUTO 26006KT 10SM CLR 09/M05 A3027 RMK AO2
KDBN 101835Z AUTO 28004KT 10SM CLR 09/M05 A3027 RMK AO2
KDBN 101815Z AUTO 31005KT 10SM CLR 08/M05 A3027 RMK AO2
KDBN 101755Z AUTO 28004KT 10SM CLR 08/M03 A3028 RMK AO2
KDBN 101735Z AUTO 34005KT 10SM CLR 08/M04 A3029 RMK AO2
KDBN 101715Z AUTO 29007KT 10SM CLR 07/M03 A3031 RMK AO2
KDBN 101655Z AUTO 29005KT 10SM CLR 06/M04 A3032 RMK AO2
KDBN 101635Z AUTO 30004KT 10SM CLR 06/M04 A3032 RMK AO2
KDBN 101615Z AUTO 33004KT 10SM CLR 05/M04 A3033 RMK AO2
KDBN 101555Z AUTO 30006KT 10SM CLR 05/M05 A3033 RMK AO2
KDBN 101535Z AUTO 30007KT 10SM CLR 04/M05 A3033 RMK AO2
KDBN 101515Z AUTO 32008KT 10SM CLR 04/M04 A3034 RMK AO2
KDBN 101455Z AUTO 32008KT 10SM CLR 03/M05 A3034 RMK AO2
KDBN 101435Z AUTO 31008KT 10SM CLR 02/M04 A3033 RMK AO2
KDBN 101415Z AUTO 32007KT 10SM CLR 02/M04 A3033 RMK AO2
KDBN 101355Z AUTO 32006KT 10SM CLR 01/M03 A3033 RMK AO2
KDBN 101335Z AUTO 31006KT 10SM CLR 00/M03 A3032 RMK AO2
KDBN 101315Z AUTO 32004KT 10SM CLR 00/M03 A3032 RMK AO2
KDBN 101255Z AUTO 29003KT 10SM CLR M01/M03 A3031 RMK AO2
KDBN 101235Z AUTO 00000KT 10SM CLR M02/M04 A3031 RMK AO2
KDBN 101215Z AUTO 00000KT 10SM CLR M02/M03 A3031 RMK AO2
KDBN 101155Z AUTO 28003KT 10SM CLR M01/M03 A3030 RMK AO2
KDBN 101135Z AUTO 28004KT 10SM CLR M01/M03 A3030 RMK AO2
KDBN 101115Z AUTO 29005KT 10SM CLR M01/M03 A3029 RMK AO2
KDBN 101055Z AUTO 28005KT 10SM CLR M01/M03 A3028 RMK AO2
KDBN 101035Z AUTO 30003KT 10SM CLR M01/M03 A3027 RMK AO2
KDBN 101015Z AUTO 27003KT 10SM CLR M02/M03 A3027 RMK AO2
KDBN 100955Z AUTO 27004KT 10SM CLR M02/M03 A3026 RMK AO2
KDBN 100935Z AUTO 29004KT 10SM CLR M01/M03 A3025 RMK AO2
KDBN 100915Z AUTO 31004KT 10SM CLR 00/M02 A3025 RMK AO2
KDBN 100855Z AUTO 30003KT 10SM CLR 00/M02 A3024 RMK AO2
KDBN 100835Z AUTO 29004KT 10SM CLR 00/M02 A3024 RMK AO2
KDBN 100815Z AUTO 29004KT 10SM CLR 00/M02 A3024 RMK AO2
KDBN 100755Z AUTO 29005KT 10SM CLR 00/M02 A3023 RMK AO2
KDBN 100735Z AUTO 31004KT 10SM CLR 00/M02 A3022 RMK AO2
KDBN 100715Z AUTO 29005KT 10SM CLR 00/M02 A3022 RMK AO2
KDBN 100655Z AUTO 30005KT 10SM CLR 00/M02 A3021 RMK AO2
KDBN 100635Z AUTO 30006KT 10SM CLR 00/M02 A3021 RMK AO2
KDBN 100615Z AUTO 30004KT 10SM CLR 00/M02 A3020 RMK AO2
KDBN 100555Z AUTO 28003KT 10SM CLR M01/M03 A3020 RMK AO2
KDBN 100535Z AUTO 26004KT 10SM CLR M01/M03 A3020 RMK AO2
KDBN 100515Z AUTO 00000KT 10SM CLR 00/M03 A3019 RMK AO2
KDBN 100455Z AUTO 26004KT 10SM CLR 00/M03 A3018 RMK AO2
KDBN 100435Z AUTO 28005KT 10SM CLR 01/M03 A3018 RMK AO2
KDBN 100415Z AUTO 29005KT 10SM CLR 01/M03 A3017 RMK AO2
KDBN 100355Z AUTO 28005KT 10SM CLR 00/M03 A3017 RMK AO2
KDBN 100335Z AUTO 27004KT 10SM CLR 00/M02 A3017 RMK AO2
KDBN 100315Z AUTO 00000KT 10SM CLR 00/M02 A3015 RMK AO2
KDBN 100250Z AUTO 28004KT 10SM CLR 00/M03 A3014 RMK AO2
KDBN 100235Z AUTO 28004KT 10SM CLR 00/M03 A3014 RMK AO2
KDBN 100215Z AUTO 28003KT 10SM CLR 01/M03 A3014 RMK AO2
KDBN 100155Z AUTO 29004KT 10SM CLR 01/M03 A3013 RMK AO2
KDBN 100135Z AUTO 28005KT 10SM CLR 02/M03 A3012 RMK AO2
KDBN 100115Z AUTO 29006KT 10SM CLR 02/M03 A3011 RMK AO2
KDBN 100055Z AUTO 29005KT 10SM CLR 02/M03 A3010 RMK AO2
KDBN 100035Z AUTO 30004KT 10SM CLR 02/M03 A3010 RMK AO2
KDBN 100015Z AUTO 29004KT 10SM CLR 02/M03 A3009 RMK AO2
KDBN 092355Z AUTO 29004KT 10SM CLR 02/M03 A3006 RMK AO2
KDBN 092335Z AUTO 26004KT 10SM CLR 02/M02 A3005 RMK AO2
KDBN 092315Z AUTO 27004KT 10SM CLR 02/M01 A3005 RMK AO2
KDBN 092255Z AUTO 26003KT 10SM CLR 02/00 A3004 RMK AO2
KDBN 092235Z AUTO 26003KT 10SM CLR 03/M01 A3002 RMK AO2
KDBN 092215Z AUTO 27004KT 10SM CLR 05/00 A3001 RMK AO2
KDBN 092155Z AUTO 25003KT 10SM CLR 05/00 A3001 RMK AO2
KDBN 092135Z AUTO 27005KT 10SM CLR 06/00 A3000 RMK AO2
KDBN 092115Z AUTO 28007KT 10SM SCT026 06/00 A3000 RMK AO2
KDBN 092055Z AUTO 29005KT 10SM SCT026 06/00 A3000 RMK AO2
KDBN 092035Z AUTO 27010KT 10SM SCT021 06/00 A3000 RMK AO2
KDBN 092015Z AUTO 27010G15KT 10SM BKN021 BKN027 05/00 A3000 RMK AO2
KDBN 091955Z AUTO 29010KT 10SM BKN017 OVC025 05/01 A3000 RMK AO2
KDBN 091935Z AUTO 29008KT 10SM OVC015 04/01 A2999 RMK AO2
KDBN 091915Z AUTO 30010G14KT 10SM OVC015 04/01 A2999 RMK AO2
KDBN 091855Z AUTO 29012G16KT 10SM OVC015 04/01 A2998 RMK AO2
KDBN 091835Z AUTO 29008KT 10SM OVC015 04/01 A2998 RMK AO2
KDBN 091815Z AUTO 30010KT 10SM OVC015 04/01 A2997 RMK AO2
KDBN 091755Z AUTO 29010G15KT 10SM OVC015 05/02 A2997 RMK AO2
KDBN 091735Z AUTO 29008G14KT 10SM OVC015 05/02 A2997 RMK AO2
KDBN 091715Z AUTO 30009G16KT 10SM OVC015 05/03 A2997 RMK AO2
KDBN 091655Z AUTO 29009KT 10SM SCT009 BKN013 OVC020 05/02 A2997 RMK AO2
KDBN 091635Z AUTO 28006KT 10SM BKN009 OVC019 05/03 A2997 RMK AO2
KDBN 091615Z AUTO 29007KT 10SM BKN011 OVC016 05/03 A2998 RMK AO2
KDBN 091555Z AUTO 30006KT 7SM -DZ BKN007 BKN014 OVC019 05/03 A2998 RMK AO2
KDBN 091535Z AUTO 30005KT 7SM -RA OVC007 05/03 A2998 RMK AO2
KDBN 091515Z AUTO 29004KT 10SM DZ OVC007 05/03 A2997 RMK AO2
KDBN 091455Z AUTO 29006KT 5SM BR OVC007 04/03 A2996 RMK AO2
KDBN 091435Z AUTO 29005KT 7SM OVC007 04/03 A2997 RMK AO2
KDBN 091415Z AUTO 31003KT 10SM OVC007 04/03 A2996 RMK AO2
KDBN 091350Z AUTO 32003KT 10SM OVC005 04/03 A2995 RMK AO2
KDBN 091335Z AUTO 30004KT 10SM OVC007 04/03 A2995 RMK AO2
KDBN 091315Z AUTO 00000KT 10SM OVC011 04/03 A2995 RMK AO2
KDBN 091255Z AUTO 00000KT 10SM SCT009 OVC016 04/03 A2995 RMK AO2
KDBN 091235Z AUTO 32003KT 10SM BKN009 OVC018 04/03 A2995 RMK AO2